Time;durP1;ratioP1;P1;durP2;ratioP2;P2;SDS_P1;SDS_P2;PMS_P1;PMS_P2;Temp;Humidity;BMP_temperature;BMP_pressure;BME280_temperature;BME280_humidity;BME280_pressure;Samples;Min_cycle;Max_cycle;Signal;HPM_P1;HPM_P2
2023/11/20 00:00:12;;;;;;;;;;;;;;;;;;4992315;28;19926;-70
2023/11/20 00:02:39;;;;;;;;;;;;;;;;;;4992596;28;19932;-70
2023/11/20 00:05:06;;;;;;;;;;;;;;;;;;4992915;28;19973;-70
2023/11/20 00:07:33;;;;;;;;;;;;;;;;;;4991832;28;19960;-70
2023/11/20 00:10:00;;;;;;;;;;;;;;;;;;4991147;28;20381;-72
2023/11/20 00:12:27;;;;;;;;;;;;;;;;;;4991938;28;19968;-71
2023/11/20 00:14:54;;;;;;;;;;;;;;;;;;4992013;28;20016;-70
2023/11/20 00:17:21;;;;;;;;;;;;;;;;;;4989925;28;19925;-70
2023/11/20 00:19:48;;;;;;;;;;;;;;;;;;5009996;28;20008;-69
2023/11/20 00:22:15;;;;;;;;;;;;;;;;;;4991263;28;20423;-69
2023/11/20 00:24:42;;;;;;;;;;;;;;;;;;4993199;28;19980;-69
2023/11/20 00:27:10;;;;;;;;;;;;;;;;;;4992887;28;20017;-69
2023/11/20 00:29:37;;;;;;;;;;;;;;;;;;4992839;28;19926;-70
2023/11/20 00:32:04;;;;;;;;;;;;;;;;;;4991010;28;20412;-70
2023/11/20 00:34:31;;;;;;;;;;;;;;;;;;4992877;28;20487;-70
2023/11/20 00:36:59;;;;;;;;;;;;;;;;;;4992431;28;20020;-70
2023/11/20 00:39:25;;;;;;;;;;;;;;;;;;4986152;28;20017;-70
2023/11/20 00:41:52;;;;;;;;;;;;;;;;;;4991871;28;20449;-70
2023/11/20 00:44:19;;;;;;;;;;;;;;;;;;4991155;28;20070;-70
2023/11/20 00:46:46;;;;;;;;;;;;;;;;;;4989229;28;19925;-70
2023/11/20 00:49:13;;;;;;;;;;;;;;;;;;4991666;28;20021;-70
2023/11/20 00:51:40;;;;;;;;;;;;;;;;;;4991934;28;20305;-71
2023/11/20 00:54:08;;;;;;;;;;;;;;;;;;4992245;28;20329;-71
2023/11/20 00:56:35;;;;;;;;;;;;;;;;;;4990660;28;19929;-71
2023/11/20 00:59:03;;;;;;;;;;;;;;;;;;4992077;28;19929;-71
2023/11/20 01:01:30;;;;;;;;;;;;;;;;;;4993269;28;19948;-69
2023/11/20 01:03:57;;;;;;;;;;;;;;;;;;4995590;28;19926;-69
2023/11/20 01:06:24;;;;;;;;;;;;;;;;;;4994370;28;20036;-69
2023/11/20 01:08:51;;;;;;;;;;;;;;;;;;4992910;28;19934;-69
2023/11/20 01:11:18;;;;;;;;;;;;;;;;;;4996071;28;20367;-69
2023/11/20 01:13:45;;;;;;;;;;;;;;;;;;4995570;28;19973;-69
2023/11/20 01:16:13;;;;;;;;;;;;;;;;;;4993859;28;19933;-69
2023/11/20 01:18:40;;;;;;;;;;;;;;;;;;4993456;28;20403;-69
2023/11/20 01:21:08;;;;;;;;;;;;;;;;;;4994817;28;20365;-69
2023/11/20 01:23:35;;;;;;;;;;;;;;;;;;4993822;28;19929;-68
2023/11/20 01:26:03;;;;;;;;;;;;;;;;;;4994267;28;19926;-70
2023/11/20 01:28:30;;;;;;;;;;;;;;;;;;4995880;28;20300;-70
2023/11/20 01:30:57;;;;;;;;;;;;;;;;;;4994867;28;19937;-69
2023/11/20 01:33:24;;;;;;;;;;;;;;;;;;4992526;28;20397;-71
2023/11/20 01:35:51;;;;;;;;;;;;;;;;;;4995276;28;19926;-70
2023/11/20 01:38:18;;;;;;;;;;;;;;;;;;4994997;28;20009;-71
2023/11/20 01:40:45;;;;;;;;;;;;;;;;;;4994872;28;20021;-69
2023/11/20 01:43:12;;;;;;;;;;;;;;;;;;4992898;28;20483;-71
2023/11/20 01:45:39;;;;;;;;;;;;;;;;;;4997863;28;20016;-71
2023/11/20 01:48:07;;;;;;;;;;;;;;;;;;4993458;28;20446;-70
2023/11/20 01:50:34;;;;;;;;;;;;;;;;;;4994528;28;19934;-70
2023/11/20 01:53:01;;;;;;;;;;;;;;;;;;4993815;28;20028;-70
2023/11/20 01:55:28;;;;;;;;;;;;;;;;;;4995616;28;20024;-70
2023/11/20 01:57:56;;;;;;;;;;;;;;;;;;4996252;28;19930;-69
2023/11/20 02:00:23;;;;;;;;;;;;;;;;;;4994358;28;20453;-69
2023/11/20 02:02:50;;;;;;;;;;;;;;;;;;4991679;28;20016;-70
2023/11/20 02:05:17;;;;;;;;;;;;;;;;;;4994005;28;19926;-70
2023/11/20 02:07:44;;;;;;;;;;;;;;;;;;4989073;28;20425;-71
2023/11/20 02:10:11;;;;;;;;;;;;;;;;;;4994031;28;19972;-69
2023/11/20 02:12:38;;;;;;;;;;;;;;;;;;4992468;28;19980;-69
2023/11/20 02:15:05;;;;;;;;;;;;;;;;;;4994208;28;19981;-69
2023/11/20 02:17:33;;;;;;;;;;;;;;;;;;4992357;28;19937;-70
2023/11/20 02:20:00;;;;;;;;;;;;;;;;;;4993086;28;19932;-69
2023/11/20 02:22:27;;;;;;;;;;;;;;;;;;4993003;28;20338;-69
2023/11/20 02:24:54;;;;;;;;;;;;;;;;;;4993842;28;20026;-69
2023/11/20 02:27:22;;;;;;;;;;;;;;;;;;4991813;28;20024;-70
2023/11/20 02:29:49;;;;;;;;;;;;;;;;;;4992913;28;20301;-71
2023/11/20 02:32:16;;;;;;;;;;;;;;;;;;4994197;28;19980;-70
2023/11/20 02:34:43;;;;;;;;;;;;;;;;;;4993416;28;20017;-70
2023/11/20 02:37:10;;;;;;;;;;;;;;;;;;4990995;28;20013;-70
2023/11/20 02:39:37;;;;;;;;;;;;;;;;;;4993743;28;19969;-70
2023/11/20 02:42:06;;;;;;;;;;;;;;;;;;4993197;28;19925;-70
2023/11/20 02:44:33;;;;;;;;;;;;;;;;;;4994188;28;19926;-70
2023/11/20 02:47:00;;;;;;;;;;;;;;;;;;4993281;28;19926;-69
2023/11/20 02:49:27;;;;;;;;;;;;;;;;;;4989585;28;20021;-70
2023/11/20 02:51:55;;;;;;;;;;;;;;;;;;4993702;28;19957;-70
2023/11/20 02:54:22;;;;;;;;;;;;;;;;;;4975534;28;19926;-71
2023/11/20 02:56:48;;;;;;;;;;;;;;;;;;4989637;28;19933;-71
2023/11/20 02:59:16;;;;;;;;;;;;;;;;;;4992526;28;20020;-71
2023/11/20 03:01:43;;;;;;;;;;;;;;;;;;4992638;28;20032;-71
2023/11/20 03:04:10;;;;;;;;;;;;;;;;;;4992553;28;20016;-70
2023/11/20 03:06:37;;;;;;;;;;;;;;;;;;4993163;28;19952;-71
2023/11/20 03:09:04;;;;;;;;;;;;;;;;;;5003993;28;19933;-71
2023/11/20 03:11:31;;;;;;;;;;;;;;;;;;4994011;28;19980;-71
2023/11/20 03:13:58;;;;;;;;;;;;;;;;;;4992696;28;19980;-71
2023/11/20 03:16:25;;;;;;;;;;;;;;;;;;4993793;28;20024;-72
2023/11/20 03:18:52;;;;;;;;;;;;;;;;;;4992690;28;19972;-72
2023/11/20 03:21:19;;;;;;;;;;;;;;;;;;4997891;28;19992;-72
2023/11/20 03:23:46;;;;;;;;;;;;;;;;;;4994154;28;19930;-71
2023/11/20 03:26:13;;;;;;;;;;;;;;;;;;4992951;28;19976;-70
2023/11/20 03:28:40;;;;;;;;;;;;;;;;;;4993363;28;19925;-70
2023/11/20 03:31:07;;;;;;;;;;;;;;;;;;4992794;28;20024;-69
2023/11/20 03:33:34;;;;;;;;;;;;;;;;;;4982300;28;19970;-70
2023/11/20 03:36:01;;;;;;;;;;;;;;;;;;4974902;28;19926;-70
2023/11/20 03:38:28;;;;;;;;;;;;;;;;;;4982836;28;19926;-69
2023/11/20 03:40:55;;;;;;;;;;;;;;;;;;4993356;28;20004;-70
2023/11/20 03:43:23;;;;;;;;;;;;;;;;;;4992049;28;20013;-70
2023/11/20 03:45:50;;;;;;;;;;;;;;;;;;4988470;28;19940;-70
2023/11/20 03:48:18;;;;;;;;;;;;;;;;;;4991791;28;19930;-71
2023/11/20 03:50:45;;;;;;;;;;;;;;;;;;4993872;28;20417;-71
2023/11/20 03:53:12;;;;;;;;;;;;;;;;;;4993295;28;20356;-70
2023/11/20 03:55:39;;;;;;;;;;;;;;;;;;4992752;28;20009;-71
2023/11/20 03:58:06;;;;;;;;;;;;;;;;;;4995229;28;19980;-71
2023/11/20 04:00:33;;;;;;;;;;;;;;;;;;4993140;28;19930;-71
2023/11/20 04:03:02;;;;;;;;;;;;;;;;;;4990970;28;20587;-71
2023/11/20 04:05:29;;;;;;;;;;;;;;;;;;4992238;28;19926;-72
2023/11/20 04:07:56;;;;;;;;;;;;;;;;;;4991138;28;19926;-72
2023/11/20 04:10:23;;;;;;;;;;;;;;;;;;4992499;28;19925;-70
2023/11/20 04:12:50;;;;;;;;;;;;;;;;;;4989502;28;19925;-70
2023/11/20 04:15:17;;;;;;;;;;;;;;;;;;4987656;28;20009;-71
2023/11/20 04:17:44;;;;;;;;;;;;;;;;;;4990480;28;20270;-70
2023/11/20 04:20:11;;;;;;;;;;;;;;;;;;4992676;28;19969;-71
2023/11/20 04:22:38;;;;;;;;;;;;;;;;;;4992372;28;19932;-71
2023/11/20 04:25:06;;;;;;;;;;;;;;;;;;4991440;28;19925;-70
2023/11/20 04:27:33;;;;;;;;;;;;;;;;;;4989346;28;20385;-70
2023/11/20 04:30:00;;;;;;;;;;;;;;;;;;4990557;28;20233;-70
2023/11/20 04:32:27;;;;;;;;;;;;;;;;;;4992335;28;19934;-70
2023/11/20 04:34:54;;;;;;;;;;;;;;;;;;4990468;28;20285;-70
2023/11/20 04:37:21;;;;;;;;;;;;;;;;;;4993071;28;19968;-70
2023/11/20 04:39:49;;;;;;;;;;;;;;;;;;4989313;28;19926;-70
2023/11/20 04:42:16;;;;;;;;;;;;;;;;;;4991933;28;20399;-70
2023/11/20 04:44:43;;;;;;;;;;;;;;;;;;4991415;28;19930;-70
2023/11/20 04:47:10;;;;;;;;;;;;;;;;;;4992237;28;20344;-69
2023/11/20 04:49:37;;;;;;;;;;;;;;;;;;4990457;28;19973;-70
2023/11/20 04:52:04;;;;;;;;;;;;;;;;;;4991930;28;19936;-70
2023/11/20 04:54:31;;;;;;;;;;;;;;;;;;4988985;28;19925;-71
2023/11/20 04:56:59;;;;;;;;;;;;;;;;;;4990919;28;20467;-71
2023/11/20 04:59:26;;;;;;;;;;;;;;;;;;4990873;28;19932;-70
2023/11/20 05:01:53;;;;;;;;;;;;;;;;;;4991704;28;20375;-69
2023/11/20 05:04:21;;;;;;;;;;;;;;;;;;4991577;28;19980;-69
2023/11/20 05:06:48;;;;;;;;;;;;;;;;;;4992009;28;19933;-70
2023/11/20 05:09:16;;;;;;;;;;;;;;;;;;4990534;28;19956;-70
2023/11/20 05:11:46;;;;;;;;;;;;;;;;;;4991744;28;19934;-70
2023/11/20 05:14:13;;;;;;;;;;;;;;;;;;4991711;28;20476;-71
2023/11/20 05:16:40;;;;;;;;;;;;;;;;;;4995282;28;19976;-70
2023/11/20 05:19:07;;;;;;;;;;;;;;;;;;4995434;28;19929;-70
2023/11/20 05:21:34;;;;;;;;;;;;;;;;;;4989159;28;20012;-70
2023/11/20 05:24:01;;;;;;;;;;;;;;;;;;4990814;28;19961;-70
2023/11/20 05:26:28;;;;;;;;;;;;;;;;;;4992784;28;20025;-71
2023/11/20 05:28:56;;;;;;;;;;;;;;;;;;4992392;28;20428;-70
2023/11/20 05:31:23;;;;;;;;;;;;;;;;;;4990249;28;19934;-71
2023/11/20 05:33:50;;;;;;;;;;;;;;;;;;4988370;28;19980;-71
2023/11/20 05:36:17;;;;;;;;;;;;;;;;;;4992694;28;20020;-71
2023/11/20 05:38:44;;;;;;;;;;;;;;;;;;4991769;28;20354;-71
2023/11/20 05:41:11;;;;;;;;;;;;;;;;;;4992449;28;19929;-71
2023/11/20 05:43:38;;;;;;;;;;;;;;;;;;4991153;28;19925;-70
2023/11/20 05:46:05;;;;;;;;;;;;;;;;;;4993426;28;20025;-71
2023/11/20 05:48:32;;;;;;;;;;;;;;;;;;4994464;28;19925;-71
2023/11/20 05:50:59;;;;;;;;;;;;;;;;;;4993713;28;19930;-70
2023/11/20 05:53:26;;;;;;;;;;;;;;;;;;4994828;28;19980;-71
2023/11/20 05:55:53;;;;;;;;;;;;;;;;;;4995447;28;20032;-72
2023/11/20 05:58:20;;;;;;;;;;;;;;;;;;4995378;28;19926;-72
2023/11/20 06:00:47;;;;;;;;;;;;;;;;;;4992633;28;19976;-70
2023/11/20 06:03:14;;;;;;;;;;;;;;;;;;4993952;28;20064;-69
2023/11/20 06:05:41;;;;;;;;;;;;;;;;;;4993103;28;20452;-69
2023/11/20 06:08:09;;;;;;;;;;;;;;;;;;4994073;28;19926;-70
2023/11/20 06:10:36;;;;;;;;;;;;;;;;;;4992818;28;20385;-70
2023/11/20 06:13:03;;;;;;;;;;;;;;;;;;4994927;28;19925;-70
2023/11/20 06:15:30;;;;;;;;;;;;;;;;;;4991857;28;19965;-70
2023/11/20 06:17:57;;;;;;;;;;;;;;;;;;4990049;28;19926;-71
2023/11/20 06:20:23;;;;;;;;;;;;;;;;;;4990012;28;20010;-71
2023/11/20 06:22:50;;;;;;;;;;;;;;;;;;4993227;28;20024;-70
2023/11/20 06:25:17;;;;;;;;;;;;;;;;;;4995374;28;19991;-71
2023/11/20 06:27:45;;;;;;;;;;;;;;;;;;4993520;28;19926;-70
2023/11/20 06:30:12;;;;;;;;;;;;;;;;;;4993015;28;19961;-71
2023/11/20 06:32:39;;;;;;;;;;;;;;;;;;4994606;28;19926;-71
2023/11/20 06:35:07;;;;;;;;;;;;;;;;;;4992782;28;19934;-72
2023/11/20 06:37:34;;;;;;;;;;;;;;;;;;4993661;28;20385;-72
2023/11/20 06:40:02;;;;;;;;;;;;;;;;;;4992801;28;20395;-72
2023/11/20 06:42:29;;;;;;;;;;;;;;;;;;4988586;28;19945;-71
2023/11/20 06:44:56;;;;;;;;;;;;;;;;;;4992852;28;19972;-71
2023/11/20 06:47:23;;;;;;;;;;;;;;;;;;4991271;28;19934;-71
2023/11/20 06:49:50;;;;;;;;;;;;;;;;;;4990786;28;20448;-71
2023/11/20 06:52:17;;;;;;;;;;;;;;;;;;4988897;28;19926;-71
2023/11/20 06:54:44;;;;;;;;;;;;;;;;;;4991289;28;19937;-72
2023/11/20 06:59:45;;;;;;;;;;;;;;;;;;5039098;22;19971;-71
2023/11/20 07:02:14;;;;;;;;;;;;;;;;;;5030682;28;19936;-71
2023/11/20 07:04:44;;;;;;;;;;;;;;;;;;5017139;28;19956;-71
2023/11/20 07:07:12;;;;;;;;;;;;;;;;;;5012235;28;19976;-70
2023/11/20 07:09:39;;;;;;;;;;;;;;;;;;5011243;28;20011;-72
2023/11/20 07:12:06;;;;;;;;;;;;;;;;;;5011604;28;20300;-72
2023/11/20 07:14:33;;;;;;;;;;;;;;;;;;5010645;28;19948;-71
2023/11/20 07:17:00;;;;;;;;;;;;;;;;;;5010794;28;19925;-72
2023/11/20 07:19:27;;;;;;;;;;;;;;;;;;5011798;28;19937;-70
2023/11/20 07:21:54;;;;;;;;;;;;;;;;;;5012378;28;19967;-70
2023/11/20 07:24:25;;;;;;;;;;;;;;;;;;5005383;28;19932;-72
2023/11/20 07:26:52;;;;;;;;;;;;;;;;;;4997624;28;19933;-72
2023/11/20 07:29:19;;;;;;;;;;;;;;;;;;5007487;28;20048;-71
2023/11/20 07:31:46;;;;;;;;;;;;;;;;;;5002572;28;19960;-71
2023/11/20 07:34:13;;;;;;;;;;;;;;;;;;4997392;28;19933;-69
2023/11/20 07:36:40;;;;;;;;;;;;;;;;;;5007387;28;19976;-71
2023/11/20 07:39:09;;;;;;;;;;;;;;;;;;5010719;28;19926;-73
2023/11/20 07:41:38;;;;;;;;;;;;;;;;;;5012142;28;19941;-70
2023/11/20 07:44:05;;;;;;;;;;;;;;;;;;5010160;28;20016;-71
2023/11/20 07:46:32;;;;;;;;;;;;;;;;;;5005777;28;19948;-71
2023/11/20 07:48:59;;;;;;;;;;;;;;;;;;5011516;28;19925;-71
2023/11/20 07:51:26;;;;;;;;;;;;;;;;;;5009188;28;20499;-70
2023/11/20 07:53:53;;;;;;;;;;;;;;;;;;5010440;28;19929;-71
2023/11/20 07:56:21;;;;;;;;;;;;;;;;;;5011124;28;19933;-70
2023/11/20 07:58:48;;;;;;;;;;;;;;;;;;5009936;28;19999;-69
2023/11/20 08:01:15;;;;;;;;;;;;;;;;;;5007301;28;19976;-70
2023/11/20 08:03:43;;;;;;;;;;;;;;;;;;4998863;28;19926;-70
2023/11/20 08:06:13;;;;;;;;;;;;;;;;;;5006528;28;19995;-70
2023/11/20 08:08:40;;;;;;;;;;;;;;;;;;5009121;28;19944;-70
2023/11/20 08:11:07;;;;;;;;;;;;;;;;;;5014996;28;20028;-70
2023/11/20 08:13:35;;;;;;;;;;;;;;;;;;5018292;28;19972;-70
2023/11/20 08:16:03;;;;;;;;;;;;;;;;;;5009374;28;20327;-70
2023/11/20 08:18:30;;;;;;;;;;;;;;;;;;5010658;28;19934;-70
2023/11/20 08:20:57;;;;;;;;;;;;;;;;;;5011122;28;19929;-69
2023/11/20 08:23:24;;;;;;;;;;;;;;;;;;5013551;28;19971;-70
2023/11/20 08:25:51;;;;;;;;;;;;;;;;;;5011341;28;19936;-70
2023/11/20 08:28:19;;;;;;;;;;;;;;;;;;5011685;28;19925;-70
2023/11/20 08:30:47;;;;;;;;;;;;;;;;;;5017983;28;19929;-68
2023/11/20 08:33:14;;;;;;;;;;;;;;;;;;5020281;28;19925;-67
2023/11/20 08:35:40;;;;;;;;;;;;;;;;;;5024165;28;19925;-68
2023/11/20 08:38:08;;;;;;;;;;;;;;;;;;5008128;28;19926;-67
2023/11/20 08:40:35;;;;;;;;;;;;;;;;;;5021548;28;20035;-68
2023/11/20 08:43:03;;;;;;;;;;;;;;;;;;5015441;28;19932;-67
2023/11/20 08:45:30;;;;;;;;;;;;;;;;;;5013717;28;20371;-70
2023/11/20 08:47:57;;;;;;;;;;;;;;;;;;5016056;28;19972;-68
2023/11/20 08:50:26;;;;;;;;;;;;;;;;;;5022085;28;19937;-68
2023/11/20 08:52:53;;;;;;;;;;;;;;;;;;5011104;28;20020;-68
2023/11/20 08:55:20;;;;;;;;;;;;;;;;;;5021593;28;19956;-68
2023/11/20 08:57:47;;;;;;;;;;;;;;;;;;5024827;28;19925;-66
2023/11/20 09:00:14;;;;;;;;;;;;;;;;;;5016518;28;19925;-67
2023/11/20 09:02:41;;;;;;;;;;;;;;;;;;5009929;28;20419;-68
2023/11/20 09:05:08;;;;;;;;;;;;;;;;;;5014311;28;20067;-68
2023/11/20 09:07:36;;;;;;;;;;;;;;;;;;5014786;28;19933;-68
2023/11/20 09:10:04;;;;;;;;;;;;;;;;;;5010798;28;19929;-67
2023/11/20 09:12:33;;;;;;;;;;;;;;;;;;5017591;28;19926;-67
2023/11/20 09:15:00;;;;;;;;;;;;;;;;;;5009894;28;19937;-68
2023/11/20 09:17:27;;;;;;;;;;;;;;;;;;5014587;28;19990;-66
2023/11/20 09:19:54;;;;;;;;;;;;;;;;;;5017004;28;19925;-70
2023/11/20 09:22:21;;;;;;;;;;;;;;;;;;5019480;28;19932;-67
2023/11/20 09:24:48;;;;;;;;;;;;;;;;;;5019605;28;19961;-70
2023/11/20 09:27:15;;;;;;;;;;;;;;;;;;5020413;28;20009;-69
2023/11/20 09:29:42;;;;;;;;;;;;;;;;;;5020705;28;19968;-69
2023/11/20 09:32:10;;;;;;;;;;;;;;;;;;5010445;28;19972;-70
2023/11/20 09:34:38;;;;;;;;;;;;;;;;;;5017000;28;19925;-69
2023/11/20 09:37:05;;;;;;;;;;;;;;;;;;5017389;28;20019;-70
2023/11/20 09:39:32;;;;;;;;;;;;;;;;;;5020470;28;20356;-73
2023/11/20 09:42:00;;;;;;;;;;;;;;;;;;5017090;28;20308;-78
2023/11/20 09:44:27;;;;;;;;;;;;;;;;;;5009958;28;19933;-78
2023/11/20 09:46:54;;;;;;;;;;;;;;;;;;5019530;28;19968;-72
2023/11/20 09:49:21;;;;;;;;;;;;;;;;;;5015413;28;20004;-72
2023/11/20 09:51:49;;;;;;;;;;;;;;;;;;5011944;28;20004;-72
2023/11/20 09:54:16;;;;;;;;;;;;;;;;;;5011035;28;20646;-71
2023/11/20 09:56:43;;;;;;;;;;;;;;;;;;5012802;28;20484;-72
2023/11/20 09:59:12;;;;;;;;;;;;;;;;;;5020549;28;20388;-71
2023/11/20 10:01:39;;;;;;;;;;;;;;;;;;5014458;28;19947;-72
2023/11/20 10:04:06;;;;;;;;;;;;;;;;;;5017475;28;19965;-72
2023/11/20 10:06:33;;;;;;;;;;;;;;;;;;5012781;28;20020;-72
2023/11/20 10:09:02;;;;;;;;;;;;;;;;;;5014711;28;19930;-71
2023/11/20 10:11:29;;;;;;;;;;;;;;;;;;5019834;28;19926;-71
2023/11/20 10:13:56;;;;;;;;;;;;;;;;;;5023643;28;20243;-73
2023/11/20 10:16:23;;;;;;;;;;;;;;;;;;5023715;28;19925;-71
2023/11/20 10:18:51;;;;;;;;;;;;;;;;;;5013795;28;20300;-71
2023/11/20 10:21:18;;;;;;;;;;;;;;;;;;5018110;28;19933;-72
2023/11/20 10:23:45;;;;;;;;;;;;;;;;;;5023983;28;19940;-72
2023/11/20 10:26:13;;;;;;;;;;;;;;;;;;5016492;28;20067;-72
2023/11/20 10:28:40;;;;;;;;;;;;;;;;;;5015257;28;20015;-73
2023/11/20 10:31:07;;;;;;;;;;;;;;;;;;5017455;28;19997;-72
2023/11/20 10:33:34;;;;;;;;;;;;;;;;;;5009853;28;20012;-72
2023/11/20 10:36:01;;;;;;;;;;;;;;;;;;5015067;28;20363;-71
2023/11/20 10:38:29;;;;;;;;;;;;;;;;;;5014424;28;20395;-72
2023/11/20 10:40:58;;;;;;;;;;;;;;;;;;5014981;28;20352;-71
2023/11/20 10:43:25;;;;;;;;;;;;;;;;;;5014888;28;19972;-72
2023/11/20 10:45:52;;;;;;;;;;;;;;;;;;5013948;28;19943;-72
2023/11/20 10:48:19;;;;;;;;;;;;;;;;;;5013196;28;19925;-72
2023/11/20 10:50:46;;;;;;;;;;;;;;;;;;5016853;28;20036;-72
2023/11/20 10:53:13;;;;;;;;;;;;;;;;;;5012553;28;19930;-73
2023/11/20 10:55:39;;;;;;;;;;;;;;;;;;5013970;28;19925;-73
2023/11/20 10:58:06;;;;;;;;;;;;;;;;;;5012531;28;19953;-73
2023/11/20 11:00:34;;;;;;;;;;;;;;;;;;5007427;28;20028;-72
2023/11/20 11:03:01;;;;;;;;;;;;;;;;;;5014681;28;20025;-72
2023/11/20 11:05:28;;;;;;;;;;;;;;;;;;5014000;28;19933;-72
2023/11/20 11:07:55;;;;;;;;;;;;;;;;;;5011511;28;20491;-72
2023/11/20 11:10:22;;;;;;;;;;;;;;;;;;5014411;28;19925;-72
2023/11/20 11:12:49;;;;;;;;;;;;;;;;;;5011875;28;19930;-72
2023/11/20 11:15:19;;;;;;;;;;;;;;;;;;5007810;28;19937;-72
2023/11/20 11:17:46;;;;;;;;;;;;;;;;;;5018830;28;19929;-73
2023/11/20 11:20:14;;;;;;;;;;;;;;;;;;5020470;28;19929;-72
2023/11/20 11:22:42;;;;;;;;;;;;;;;;;;5006235;28;20313;-71
2023/11/20 11:25:10;;;;;;;;;;;;;;;;;;5011397;28;20440;-73
2023/11/20 11:27:36;;;;;;;;;;;;;;;;;;5018163;28;19940;-73
2023/11/20 11:30:07;;;;;;;;;;;;;;;;;;5014081;28;19933;-72
2023/11/20 11:32:34;;;;;;;;;;;;;;;;;;5011872;28;19925;-72
2023/11/20 11:35:01;;;;;;;;;;;;;;;;;;5011968;28;19925;-71
2023/11/20 11:37:30;;;;;;;;;;;;;;;;;;5008827;28;19929;-71
2023/11/20 11:39:57;;;;;;;;;;;;;;;;;;5014381;28;19987;-71
2023/11/20 11:42:24;;;;;;;;;;;;;;;;;;5018503;28;20020;-71
2023/11/20 11:44:53;;;;;;;;;;;;;;;;;;5017498;28;19925;-71
2023/11/20 11:47:21;;;;;;;;;;;;;;;;;;5014953;28;19925;-71
2023/11/20 11:49:49;;;;;;;;;;;;;;;;;;5019732;28;20384;-71
2023/11/20 11:52:16;;;;;;;;;;;;;;;;;;5018861;28;19979;-71
2023/11/20 11:54:43;;;;;;;;;;;;;;;;;;5008962;28;20376;-72
2023/11/20 11:57:11;;;;;;;;;;;;;;;;;;5023278;28;19926;-73
2023/11/20 11:59:37;;;;;;;;;;;;;;;;;;5012283;28;20340;-69
2023/11/20 12:02:04;;;;;;;;;;;;;;;;;;5026449;28;20287;-72
2023/11/20 12:04:34;;;;;;;;;;;;;;;;;;5021991;28;20004;-72
2023/11/20 12:07:02;;;;;;;;;;;;;;;;;;5029949;28;19925;-72
2023/11/20 12:09:30;;;;;;;;;;;;;;;;;;5019146;28;19925;-72
2023/11/20 12:11:57;;;;;;;;;;;;;;;;;;5015698;28;20281;-73
2023/11/20 12:14:24;;;;;;;;;;;;;;;;;;5010841;28;19979;-72
2023/11/20 12:16:51;;;;;;;;;;;;;;;;;;5021128;28;19979;-73
2023/11/20 12:19:18;;;;;;;;;;;;;;;;;;5024374;28;19925;-72
2023/11/20 12:21:45;;;;;;;;;;;;;;;;;;5017375;28;20008;-73
2023/11/20 12:24:12;;;;;;;;;;;;;;;;;;5016939;28;20017;-73
2023/11/20 12:26:39;;;;;;;;;;;;;;;;;;5013875;28;20375;-72
2023/11/20 12:29:07;;;;;;;;;;;;;;;;;;5015331;28;19925;-72
2023/11/20 12:31:34;;;;;;;;;;;;;;;;;;5022118;28;20008;-73
2023/11/20 12:34:02;;;;;;;;;;;;;;;;;;5024622;28;20040;-73
2023/11/20 12:36:29;;;;;;;;;;;;;;;;;;5020877;28;19936;-74
2023/11/20 12:38:59;;;;;;;;;;;;;;;;;;5018640;28;19925;-73
2023/11/20 12:41:28;;;;;;;;;;;;;;;;;;5018772;28;19926;-73
2023/11/20 12:43:56;;;;;;;;;;;;;;;;;;5023423;28;19925;-72
2023/11/20 12:46:23;;;;;;;;;;;;;;;;;;5013529;28;19925;-71
2023/11/20 12:48:51;;;;;;;;;;;;;;;;;;5008504;28;19925;-73
2023/11/20 12:51:18;;;;;;;;;;;;;;;;;;5014979;28;20341;-74
2023/11/20 12:53:45;;;;;;;;;;;;;;;;;;5023784;28;20372;-73
2023/11/20 12:56:13;;;;;;;;;;;;;;;;;;5028469;28;19975;-72
2023/11/20 12:58:41;;;;;;;;;;;;;;;;;;5018830;28;20016;-73
2023/11/20 13:01:08;;;;;;;;;;;;;;;;;;5017963;28;20274;-73
2023/11/20 13:03:35;;;;;;;;;;;;;;;;;;5032750;28;19984;-73
2023/11/20 13:06:04;;;;;;;;;;;;;;;;;;5021618;28;20008;-73
2023/11/20 13:08:31;;;;;;;;;;;;;;;;;;5018260;28;19926;-73
2023/11/20 13:10:59;;;;;;;;;;;;;;;;;;5034394;28;19979;-81
2023/11/20 13:13:26;;;;;;;;;;;;;;;;;;5022104;28;19930;-77
2023/11/20 13:15:53;;;;;;;;;;;;;;;;;;5013508;28;20156;-72
2023/11/20 13:18:20;;;;;;;;;;;;;;;;;;5024698;28;20016;-70
2023/11/20 13:20:47;;;;;;;;;;;;;;;;;;5022516;28;20034;-71
2023/11/20 13:23:13;;;;;;;;;;;;;;;;;;5027637;28;19925;-69
2023/11/20 13:25:40;;;;;;;;;;;;;;;;;;5027680;28;20028;-73
2023/11/20 13:28:07;;;;;;;;;;;;;;;;;;5030690;28;19968;-73
2023/11/20 13:30:34;;;;;;;;;;;;;;;;;;5035646;28;20063;-73
2023/11/20 13:33:01;;;;;;;;;;;;;;;;;;5028872;28;19992;-73
2023/11/20 13:35:28;;;;;;;;;;;;;;;;;;5015683;28;19932;-73
2023/11/20 13:37:55;;;;;;;;;;;;;;;;;;5017046;28;20040;-71
2023/11/20 13:40:22;;;;;;;;;;;;;;;;;;5028597;28;19961;-68
2023/11/20 13:42:49;;;;;;;;;;;;;;;;;;5016064;28;19925;-69
2023/11/20 13:45:16;;;;;;;;;;;;;;;;;;5031479;28;19925;-69
2023/11/20 13:47:44;;;;;;;;;;;;;;;;;;5018847;28;19981;-71
2023/11/20 13:50:12;;;;;;;;;;;;;;;;;;5017497;28;19932;-70
2023/11/20 13:52:39;;;;;;;;;;;;;;;;;;5017238;28;20278;-71
2023/11/20 13:55:06;;;;;;;;;;;;;;;;;;5031515;28;20177;-71
2023/11/20 13:57:33;;;;;;;;;;;;;;;;;;5013915;28;20327;-71
2023/11/20 14:00:00;;;;;;;;;;;;;;;;;;5015020;28;20019;-70
2023/11/20 14:02:27;;;;;;;;;;;;;;;;;;5016999;28;19925;-70
2023/11/20 14:04:54;;;;;;;;;;;;;;;;;;5025023;28;20019;-70
2023/11/20 14:07:21;;;;;;;;;;;;;;;;;;5018385;28;20020;-72
2023/11/20 14:09:48;;;;;;;;;;;;;;;;;;5016220;28;19972;-71
2023/11/20 14:12:15;;;;;;;;;;;;;;;;;;5021245;28;19936;-69
2023/11/20 14:14:42;;;;;;;;;;;;;;;;;;5011405;28;20399;-71
2023/11/20 14:17:09;;;;;;;;;;;;;;;;;;5017875;28;19925;-70
2023/11/20 14:19:38;;;;;;;;;;;;;;;;;;5016923;28;20015;-71
2023/11/20 14:22:05;;;;;;;;;;;;;;;;;;5009843;28;19965;-71
2023/11/20 14:24:32;;;;;;;;;;;;;;;;;;5016316;28;19951;-72
2023/11/20 14:26:59;;;;;;;;;;;;;;;;;;5017335;28;19948;-70
2023/11/20 14:29:26;;;;;;;;;;;;;;;;;;5028385;28;19925;-70
2023/11/20 14:31:53;;;;;;;;;;;;;;;;;;5019288;28;19926;-70
2023/11/20 14:34:20;;;;;;;;;;;;;;;;;;5024646;28;20021;-70
2023/11/20 14:36:47;;;;;;;;;;;;;;;;;;5007929;28;19932;-70
2023/11/20 14:39:14;;;;;;;;;;;;;;;;;;5014478;28;20388;-70
2023/11/20 14:41:43;;;;;;;;;;;;;;;;;;5011854;28;19929;-71
2023/11/20 14:44:10;;;;;;;;;;;;;;;;;;5017911;28;19925;-69
2023/11/20 14:46:37;;;;;;;;;;;;;;;;;;5015787;28;20372;-69
2023/11/20 14:49:04;;;;;;;;;;;;;;;;;;5014766;28;19925;-70
2023/11/20 14:51:32;;;;;;;;;;;;;;;;;;5017615;28;20427;-71
2023/11/20 14:54:01;;;;;;;;;;;;;;;;;;5011838;28;19933;-70
2023/11/20 14:56:28;;;;;;;;;;;;;;;;;;5011411;28;19979;-70
2023/11/20 14:58:55;;;;;;;;;;;;;;;;;;5011664;28;20020;-71
2023/11/20 15:01:22;;;;;;;;;;;;;;;;;;5012320;28;19968;-69
2023/11/20 15:03:49;;;;;;;;;;;;;;;;;;5009100;28;19964;-69
2023/11/20 15:06:17;;;;;;;;;;;;;;;;;;5014564;28;19932;-70
2023/11/20 15:08:44;;;;;;;;;;;;;;;;;;5018771;28;20106;-69
2023/11/20 15:11:11;;;;;;;;;;;;;;;;;;5008328;28;20288;-76
2023/11/20 15:13:38;;;;;;;;;;;;;;;;;;5016991;28;19979;-76
2023/11/20 15:16:06;;;;;;;;;;;;;;;;;;5017480;28;19984;-79
2023/11/20 15:18:33;;;;;;;;;;;;;;;;;;5025250;28;19971;-78
2023/11/20 15:21:00;;;;;;;;;;;;;;;;;;5017647;28;20580;-76
2023/11/20 15:23:29;;;;;;;;;;;;;;;;;;5013407;28;19971;-73
2023/11/20 15:25:56;;;;;;;;;;;;;;;;;;5012522;28;19936;-70
2023/11/20 15:28:23;;;;;;;;;;;;;;;;;;5012919;28;19929;-69
2023/11/20 15:30:51;;;;;;;;;;;;;;;;;;5004061;28;19961;-71
2023/11/20 15:33:18;;;;;;;;;;;;;;;;;;5008389;28;20018;-70
2023/11/20 15:35:45;;;;;;;;;;;;;;;;;;5007905;28;20443;-70
2023/11/20 15:38:12;;;;;;;;;;;;;;;;;;5009397;28;20023;-69
2023/11/20 15:40:39;;;;;;;;;;;;;;;;;;5008763;28;20031;-69
2023/11/20 15:43:06;;;;;;;;;;;;;;;;;;5005952;28;19944;-68
2023/11/20 15:45:33;;;;;;;;;;;;;;;;;;5010786;28;19967;-69
2023/11/20 15:48:00;;;;;;;;;;;;;;;;;;5010948;28;19929;-71
2023/11/20 15:50:28;;;;;;;;;;;;;;;;;;5004047;28;20024;-71
2023/11/20 15:52:55;;;;;;;;;;;;;;;;;;5008257;28;19967;-70
2023/11/20 15:55:24;;;;;;;;;;;;;;;;;;5005724;28;19929;-70
2023/11/20 15:57:52;;;;;;;;;;;;;;;;;;5005337;28;20023;-69
2023/11/20 16:00:19;;;;;;;;;;;;;;;;;;5004213;28;19933;-70
2023/11/20 16:02:47;;;;;;;;;;;;;;;;;;5009625;28;19929;-69
2023/11/20 16:05:14;;;;;;;;;;;;;;;;;;5008016;28;19930;-71
2023/11/20 16:07:41;;;;;;;;;;;;;;;;;;5018512;28;19969;-71
2023/11/20 16:10:11;;;;;;;;;;;;;;;;;;5007984;28;19963;-69
2023/11/20 16:12:39;;;;;;;;;;;;;;;;;;5019298;22;19931;-71
2023/11/20 16:15:08;;;;;;;;;;;;;;;;;;5018263;22;20308;-72
2023/11/20 16:17:35;;;;;;;;;;;;;;;;;;5023063;28;19940;-71
2023/11/20 16:20:04;;;;;;;;;;;;;;;;;;5025372;28;19929;-71
2023/11/20 16:22:31;;;;;;;;;;;;;;;;;;5016734;28;19957;-72
2023/11/20 16:24:58;;;;;;;;;;;;;;;;;;5020666;28;19968;-70
2023/11/20 16:27:26;;;;;;;;;;;;;;;;;;5019084;28;20031;-71
2023/11/20 16:29:53;;;;;;;;;;;;;;;;;;5021662;28;20056;-71
2023/11/20 16:32:20;;;;;;;;;;;;;;;;;;5015849;28;21073;-71
2023/11/20 16:34:47;;;;;;;;;;;;;;;;;;5025901;28;19936;-71
2023/11/20 16:37:15;;;;;;;;;;;;;;;;;;5018953;28;20011;-71
2023/11/20 16:39:41;;;;;;;;;;;;;;;;;;5024750;28;19925;-71
2023/11/20 16:42:08;;;;;;;;;;;;;;;;;;5033730;28;19925;-71
2023/11/20 16:44:35;;;;;;;;;;;;;;;;;;5029008;28;20386;-70
2023/11/20 16:47:04;;;;;;;;;;;;;;;;;;5034120;28;20028;-70